createdAt,value
2023-03-26T00:02:29.757Z,0.94
2023-03-26T00:04:58.092Z,0.93
2023-03-26T00:07:28.031Z,0.90
2023-03-26T00:09:58.145Z,0.89
2023-03-26T00:12:26.529Z,0.94
2023-03-26T00:14:54.700Z,0.96
2023-03-26T00:17:23.095Z,0.98
2023-03-26T00:19:53.709Z,1.01
2023-03-26T00:22:23.742Z,1.03
2023-03-26T00:24:52.063Z,1.08
2023-03-26T00:27:20.236Z,1.13
2023-03-26T00:29:48.902Z,1.17
2023-03-26T00:32:17.093Z,1.21
2023-03-26T00:34:46.227Z,1.15
2023-03-26T00:37:15.883Z,1.23
2023-03-26T00:39:44.686Z,1.25
2023-03-26T00:42:14.953Z,1.27
2023-03-26T00:44:43.342Z,1.28
2023-03-26T00:47:11.758Z,1.31
2023-03-26T00:49:40.395Z,1.36
2023-03-26T00:52:08.830Z,1.39
2023-03-26T00:54:39.169Z,1.44
2023-03-26T00:57:10.531Z,1.48
2023-03-26T00:59:38.948Z,1.52
2023-03-26T01:02:07.658Z,1.61
2023-03-26T01:04:37.687Z,1.66
2023-03-26T01:07:11.407Z,1.70
2023-03-26T01:09:45.173Z,1.69
2023-03-26T01:12:17.198Z,1.67
2023-03-26T01:14:46.365Z,1.61
2023-03-26T01:17:15.370Z,1.66
2023-03-26T01:19:50.029Z,1.71
2023-03-26T01:22:21.316Z,1.77
2023-03-26T01:24:56.347Z,1.81
2023-03-26T01:27:36.146Z,1.82
2023-03-26T01:30:15.370Z,1.85
2023-03-26T01:33:03.751Z,1.82
2023-03-26T01:35:41.958Z,1.85
2023-03-26T01:38:23.298Z,1.86
2023-03-26T01:41:00.172Z,1.90
2023-03-26T01:43:36.526Z,1.92
2023-03-26T01:46:07.812Z,1.95
2023-03-26T01:48:38.856Z,1.98
2023-03-26T01:51:08.980Z,2.01
2023-03-26T01:53:41.462Z,2.04
2023-03-26T01:56:19.361Z,2.05
2023-03-26T01:58:59.867Z,2.09
2023-03-26T02:01:32.645Z,2.11
2023-03-26T02:04:08.044Z,2.08
2023-03-26T02:06:44.311Z,2.12
2023-03-26T02:09:16.090Z,2.10
2023-03-26T02:11:47.985Z,2.13
2023-03-26T02:14:16.512Z,2.13
2023-03-26T02:16:47.153Z,2.14
2023-03-26T02:19:21.849Z,2.11
2023-03-26T02:21:52.074Z,2.15
2023-03-26T02:24:21.801Z,2.16
2023-03-26T02:26:58.175Z,2.17
2023-03-26T02:29:27.986Z,2.18
2023-03-26T02:31:56.430Z,2.02
2023-03-26T02:34:24.710Z,2.23
2023-03-26T02:36:57.219Z,2.17
2023-03-26T02:39:26.721Z,2.17
2023-03-26T02:42:05.279Z,2.19
2023-03-26T02:44:40.278Z,2.24
2023-03-26T02:47:20.402Z,2.28
2023-03-26T02:49:54.672Z,2.31
2023-03-26T02:52:49.117Z,2.30
2023-03-26T02:55:17.881Z,2.33
2023-03-26T02:57:48.844Z,2.31
2023-03-26T03:00:22.847Z,2.30
2023-03-26T03:03:17.341Z,2.37
2023-03-26T03:06:11.825Z,2.41
2023-03-26T03:08:46.581Z,2.40
2023-03-26T03:11:34.350Z,2.35
2023-03-26T03:14:04.664Z,2.35
2023-03-26T03:16:34.196Z,2.32
2023-03-26T03:19:11.288Z,2.36
2023-03-26T03:21:41.516Z,2.36
2023-03-26T03:24:11.656Z,2.36
2023-03-26T03:26:48.232Z,2.35
2023-03-26T03:29:37.865Z,2.35
2023-03-26T03:32:27.711Z,2.36
2023-03-26T03:35:00.858Z,2.41
2023-03-26T03:37:30.916Z,2.40
2023-03-26T03:40:00.717Z,2.41
2023-03-26T03:42:32.693Z,2.41
2023-03-26T03:45:06.080Z,2.40
2023-03-26T03:47:53.173Z,2.38
2023-03-26T03:50:28.546Z,2.38
2023-03-26T03:53:19.939Z,2.39
2023-03-26T03:55:54.050Z,2.40
2023-03-26T03:58:28.238Z,2.44
2023-03-26T04:01:03.106Z,2.41
2023-03-26T04:03:54.647Z,2.40
2023-03-26T04:06:30.421Z,2.44
2023-03-26T04:08:58.740Z,2.44
2023-03-26T04:11:27.672Z,2.46
2023-03-26T04:14:18.655Z,2.46
2023-03-26T04:17:08.574Z,2.43
2023-03-26T04:19:39.833Z,2.56
2023-03-26T04:22:12.005Z,2.57
2023-03-26T04:24:54.452Z,2.53
2023-03-26T04:27:49.703Z,2.54
2023-03-26T04:30:27.412Z,2.56
2023-03-26T04:33:24.991Z,2.62
2023-03-26T04:35:54.864Z,2.64
2023-03-26T04:38:24.170Z,2.70
2023-03-26T04:40:54.220Z,2.73
2023-03-26T04:43:42.647Z,2.80
2023-03-26T04:46:21.997Z,2.84
2023-03-26T04:48:58.105Z,2.91
2023-03-26T04:51:35.165Z,2.94
2023-03-26T04:54:04.505Z,2.97
2023-03-26T04:56:45.862Z,2.97
2023-03-26T04:59:26.153Z,3.04
2023-03-26T05:01:56.978Z,2.96
2023-03-26T05:04:30.393Z,3.03
2023-03-26T05:07:00.106Z,3.07
2023-03-26T05:09:37.917Z,3.04
2023-03-26T05:12:14.298Z,3.01
2023-03-26T05:15:06.335Z,3.07
2023-03-26T05:17:52.898Z,3.12
2023-03-26T05:20:31.699Z,3.19
2023-03-26T05:23:00.039Z,3.23
2023-03-26T05:25:31.737Z,3.24
2023-03-26T05:28:02.342Z,3.27
2023-03-26T05:30:38.385Z,3.31
2023-03-26T05:33:07.064Z,3.41
2023-03-26T05:35:59.664Z,3.44
2023-03-26T05:38:30.101Z,3.42
2023-03-26T05:41:00.755Z,3.43
2023-03-26T05:43:28.944Z,3.42
2023-03-26T05:46:18.175Z,3.45
2023-03-26T05:48:47.312Z,3.46
2023-03-26T05:51:17.463Z,3.47
2023-03-26T05:53:57.546Z,3.50
2023-03-26T05:56:57.072Z,3.55
2023-03-26T05:59:43.889Z,3.57
2023-03-26T06:02:20.950Z,3.67
2023-03-26T06:05:09.952Z,3.75
2023-03-26T06:07:59.600Z,3.78
2023-03-26T06:10:34.547Z,3.86
2023-03-26T06:13:02.763Z,3.90
2023-03-26T06:15:31.437Z,3.92
2023-03-26T06:18:02.599Z,4.00
2023-03-26T06:20:37.562Z,4.07
2023-03-26T06:23:18.413Z,4.06
2023-03-26T06:26:05.810Z,4.09
2023-03-26T06:28:54.336Z,4.12
2023-03-26T06:31:45.973Z,4.22
2023-03-26T06:34:34.430Z,4.28
2023-03-26T06:37:02.702Z,4.36
2023-03-26T06:39:32.924Z,4.38
2023-03-26T06:42:16.467Z,4.44
2023-03-26T06:45:06.059Z,4.52
2023-03-26T06:47:53.046Z,4.61
2023-03-26T06:50:41.622Z,4.65
2023-03-26T06:53:14.020Z,4.64
2023-03-26T06:55:49.715Z,4.66
2023-03-26T06:58:56.761Z,4.45
2023-03-26T07:01:44.484Z,4.64
2023-03-26T07:04:31.934Z,4.63
2023-03-26T07:07:21.676Z,4.65
2023-03-26T07:10:09.796Z,4.67
2023-03-26T07:12:52.291Z,4.78
2023-03-26T07:15:39.636Z,4.80
2023-03-26T07:18:27.205Z,4.85
2023-03-26T07:20:56.812Z,4.90
2023-03-26T07:23:26.764Z,4.96
2023-03-26T07:26:24.279Z,5.00
2023-03-26T07:29:22.262Z,5.06
2023-03-26T07:32:25.553Z,5.09
2023-03-26T07:35:25.633Z,5.18
2023-03-26T07:38:34.347Z,5.21
2023-03-26T07:41:36.152Z,5.23
2023-03-26T07:44:36.889Z,5.25
2023-03-26T07:47:31.570Z,5.27
2023-03-26T07:50:18.912Z,5.30
2023-03-26T07:53:09.462Z,5.31
2023-03-26T07:56:15.674Z,5.34
2023-03-26T07:59:16.115Z,5.31
2023-03-26T08:02:43.261Z,5.27
2023-03-26T08:05:36.125Z,5.28
2023-03-26T08:08:17.495Z,5.30
2023-03-26T08:11:23.195Z,5.28
2023-03-26T08:14:12.720Z,5.26
2023-03-26T08:16:47.924Z,5.25
2023-03-26T08:19:40.883Z,5.24
2023-03-26T08:22:15.525Z,5.25
2023-03-26T08:24:54.929Z,5.26
2023-03-26T08:27:31.331Z,5.29
2023-03-26T08:30:06.094Z,5.32
2023-03-26T08:32:34.790Z,5.37
2023-03-26T08:35:05.168Z,5.35
2023-03-26T08:37:33.454Z,5.38
2023-03-26T08:40:01.630Z,5.44
2023-03-26T08:43:05.444Z,5.48
2023-03-26T08:45:53.562Z,5.51
2023-03-26T08:48:57.793Z,5.53
2023-03-26T08:52:02.611Z,5.55
2023-03-26T08:54:50.396Z,5.56
2023-03-26T08:58:01.026Z,5.58
2023-03-26T09:01:03.999Z,5.52
2023-03-26T09:03:59.847Z,5.42
2023-03-26T09:06:54.344Z,5.32
2023-03-26T09:10:15.882Z,5.16
2023-03-26T09:13:22.637Z,4.98
2023-03-26T09:16:31.627Z,4.73
2023-03-26T09:19:32.288Z,4.61
2023-03-26T09:22:33.131Z,4.48
2023-03-26T09:25:26.411Z,4.39
2023-03-26T09:28:31.721Z,4.33
2023-03-26T09:31:23.613Z,4.29
2023-03-26T09:33:59.446Z,4.35
2023-03-26T09:36:45.453Z,4.31
2023-03-26T09:39:24.690Z,4.28
2023-03-26T09:42:06.822Z,4.28
2023-03-26T09:45:22.804Z,4.26
2023-03-26T09:48:34.600Z,4.28
2023-03-26T09:51:22.740Z,4.27
2023-03-26T09:54:11.709Z,4.15
2023-03-26T09:56:53.822Z,4.17
2023-03-26T09:59:54.418Z,4.18
2023-03-26T10:02:47.749Z,4.24
2023-03-26T10:05:34.762Z,4.20
2023-03-26T10:08:18.598Z,4.16
2023-03-26T10:10:54.961Z,4.22
2023-03-26T10:13:31.891Z,4.31
2023-03-26T10:16:21.389Z,4.36
2023-03-26T10:19:04.235Z,4.40
2023-03-26T10:21:47.004Z,4.50
2023-03-26T10:24:37.714Z,4.56
2023-03-26T10:27:23.070Z,4.69
2023-03-26T10:30:19.166Z,4.79
2023-03-26T10:32:58.988Z,4.71
2023-03-26T10:35:41.413Z,4.57
2023-03-26T10:38:19.798Z,4.45
2023-03-26T10:41:00.651Z,4.46
2023-03-26T10:44:05.118Z,4.51
2023-03-26T10:46:52.360Z,4.53
2023-03-26T10:49:55.978Z,4.52
2023-03-26T10:52:30.905Z,4.45
2023-03-26T10:55:12.027Z,4.41
2023-03-26T10:57:44.593Z,4.43
2023-03-26T11:00:24.841Z,4.49
2023-03-26T11:03:12.995Z,4.54
2023-03-26T11:05:50.369Z,4.60
2023-03-26T11:08:31.675Z,4.61
2023-03-26T11:11:13.236Z,4.53
2023-03-26T11:13:52.859Z,4.58
2023-03-26T11:16:25.711Z,4.53
2023-03-26T11:19:00.603Z,4.52
2023-03-26T11:21:37.118Z,4.54
2023-03-26T11:24:36.218Z,4.32
2023-03-26T11:27:14.638Z,4.20
2023-03-26T11:29:52.260Z,4.01
2023-03-26T11:32:23.871Z,4.04
2023-03-26T11:35:00.957Z,4.08
2023-03-26T11:37:34.965Z,3.99
2023-03-26T11:40:08.331Z,4.14
2023-03-26T11:42:36.746Z,4.11
2023-03-26T11:45:07.877Z,4.12
2023-03-26T11:47:43.900Z,4.10
2023-03-26T11:50:18.082Z,4.00
2023-03-26T11:52:48.021Z,4.01
2023-03-26T11:55:16.921Z,3.97
2023-03-26T11:57:53.692Z,3.90
2023-03-26T12:00:27.543Z,3.86
2023-03-26T12:02:58.722Z,3.89
2023-03-26T12:05:33.606Z,3.82
2023-03-26T12:08:07.776Z,3.78
2023-03-26T12:10:38.890Z,3.79
2023-03-26T12:13:31.228Z,3.65
2023-03-26T12:16:00.938Z,3.49
2023-03-26T12:18:29.820Z,3.39
2023-03-26T12:21:08.959Z,3.41
2023-03-26T12:23:58.059Z,3.48
2023-03-26T12:26:39.592Z,3.50
2023-03-26T12:29:11.099Z,3.41
2023-03-26T12:31:49.824Z,3.31
2023-03-26T12:34:20.701Z,3.32
2023-03-26T12:36:52.514Z,3.31
2023-03-26T12:40:10.485Z,3.32
2023-03-26T12:44:44.020Z,3.34
2023-03-26T12:45:22.776Z,3.33
2023-03-26T12:47:59.993Z,3.40
2023-03-26T12:50:38.084Z,3.43
2023-03-26T12:53:27.716Z,3.42
2023-03-26T12:56:07.597Z,3.43
2023-03-26T12:59:00.175Z,3.44
2023-03-26T13:01:39.991Z,3.38
2023-03-26T13:04:37.554Z,3.38
2023-03-26T13:07:15.883Z,3.37
2023-03-26T13:09:56.944Z,3.39
2023-03-26T13:12:41.006Z,3.43
2023-03-26T13:15:23.718Z,3.37
2023-03-26T13:18:04.422Z,3.25
2023-03-26T13:20:46.007Z,3.06
2023-03-26T13:23:26.800Z,2.98
2023-03-26T13:26:15.581Z,2.87
2023-03-26T13:29:02.990Z,2.82
2023-03-26T13:31:40.710Z,2.84
2023-03-26T13:34:19.618Z,2.87
2023-03-26T13:50:23.885Z,3.03
2023-03-26T13:52:57.439Z,2.79
2023-03-26T13:55:31.896Z,2.59
2023-03-26T13:58:05.050Z,2.53
2023-03-26T14:00:48.949Z,2.55
2023-03-26T14:03:22.998Z,2.53
2023-03-26T14:05:56.753Z,2.59
2023-03-26T14:08:32.387Z,2.56
2023-03-26T14:11:11.091Z,2.50
2023-03-26T14:13:46.115Z,2.51
2023-03-26T14:16:20.138Z,2.51
2023-03-26T14:18:53.566Z,2.52
2023-03-26T14:21:54.092Z,2.51
2023-03-26T14:24:42.109Z,2.50
2023-03-26T14:27:39.019Z,2.43
2023-03-26T14:30:31.284Z,2.32
2023-03-26T14:33:14.582Z,2.37
2023-03-26T14:36:01.444Z,2.38
2023-03-26T14:38:59.348Z,2.35
2023-03-26T14:41:32.789Z,2.42
2023-03-26T14:44:31.422Z,2.42
2023-03-26T14:47:18.686Z,2.35
2023-03-26T14:50:20.255Z,2.38
2023-03-26T14:52:51.019Z,2.32
2023-03-26T14:55:49.498Z,2.27
2023-03-26T14:58:57.148Z,2.13
2023-03-26T15:01:27.230Z,2.13
2023-03-26T15:04:30.400Z,2.08
2023-03-26T15:07:37.549Z,2.08
2023-03-26T15:10:57.167Z,2.06
2023-03-26T15:13:55.757Z,2.03
2023-03-26T15:16:56.919Z,1.93
2023-03-26T15:19:52.110Z,1.99
2023-03-26T15:23:10.050Z,1.97
2023-03-26T15:26:03.985Z,1.93
2023-03-26T15:29:04.682Z,1.87
2023-03-26T15:32:25.998Z,1.84
2023-03-26T15:35:26.513Z,1.75
2023-03-26T15:38:17.794Z,1.70
2023-03-26T15:41:02.850Z,1.61
2023-03-26T15:44:23.720Z,1.65
2023-03-26T15:47:03.113Z,1.58
2023-03-26T15:49:41.953Z,1.47
2023-03-26T15:52:25.269Z,1.38
2023-03-26T15:55:01.500Z,1.36
2023-03-26T15:57:36.303Z,1.30
2023-03-26T16:00:22.822Z,1.28
2023-03-26T16:03:26.029Z,1.12
2023-03-26T16:06:20.384Z,1.09
2023-03-26T16:08:57.693Z,1.06
2023-03-26T16:11:54.843Z,1.07
2023-03-26T16:14:37.142Z,1.11
2023-03-26T16:17:08.200Z,1.09
2023-03-26T16:19:53.297Z,1.00
2023-03-26T16:22:43.717Z,0.92
2023-03-26T16:25:30.824Z,0.78
2023-03-26T16:28:22.712Z,0.68
2023-03-26T16:31:36.028Z,0.70
2023-03-26T16:34:42.584Z,0.66
2023-03-26T16:37:36.916Z,0.56
2023-03-26T16:40:34.164Z,0.50
2023-03-26T16:43:13.590Z,0.48
2023-03-26T16:45:51.743Z,0.47
2023-03-26T16:48:30.404Z,0.43
2023-03-26T16:51:10.308Z,0.44
2023-03-26T16:53:46.704Z,0.46
2023-03-26T16:56:25.144Z,0.44
2023-03-26T16:58:56.257Z,0.31
2023-03-26T17:01:35.784Z,0.30
2023-03-26T17:04:10.613Z,0.25
2023-03-26T17:07:02.036Z,0.21
2023-03-26T17:09:39.993Z,0.29
2023-03-26T17:12:18.789Z,0.38
2023-03-26T17:15:06.018Z,0.41
2023-03-26T17:18:01.786Z,0.44
2023-03-26T17:20:38.614Z,0.49
2023-03-26T17:23:24.048Z,0.50
2023-03-26T17:26:05.013Z,0.43
2023-03-26T17:29:10.763Z,0.39
2023-03-26T17:31:53.286Z,0.39
2023-03-26T17:34:57.197Z,0.29
2023-03-26T17:37:38.340Z,0.34
2023-03-26T17:40:47.776Z,0.28
2023-03-26T17:43:40.697Z,0.21
2023-03-26T17:46:35.130Z,0.15
2023-03-26T17:49:09.693Z,0.03
2023-03-26T17:51:45.555Z,0.03
2023-03-26T17:54:23.400Z,-0.02
2023-03-26T17:56:54.394Z,-0.04
2023-03-26T17:59:27.635Z,-0.06
2023-03-26T18:02:00.257Z,-0.01
2023-03-26T18:04:35.859Z,0.04
2023-03-26T18:07:31.868Z,0.07
2023-03-26T18:10:19.227Z,0.08
2023-03-26T18:13:15.368Z,0.13
2023-03-26T18:15:58.333Z,0.10
2023-03-26T18:18:33.378Z,0.15
2023-03-26T18:21:07.147Z,0.15
2023-03-26T18:23:38.928Z,0.17
2023-03-26T18:26:15.129Z,0.13
2023-03-26T18:28:45.534Z,0.14
2023-03-26T18:31:20.055Z,0.14
2023-03-26T18:33:50.567Z,0.12
2023-03-26T18:36:19.701Z,0.06
2023-03-26T18:38:48.990Z,0.03
2023-03-26T18:41:28.404Z,-0.04
2023-03-26T18:43:57.529Z,-0.09
2023-03-26T18:46:27.201Z,-0.12
2023-03-26T18:48:57.041Z,-0.14
2023-03-26T18:51:28.458Z,-0.20
2023-03-26T18:54:00.802Z,-0.13
2023-03-26T18:56:33.824Z,-0.12
2023-03-26T18:59:04.098Z,-0.14
2023-03-26T19:01:34.446Z,-0.22
2023-03-26T19:04:06.351Z,-0.24
2023-03-26T19:06:39.999Z,-0.23
2023-03-26T19:09:20.075Z,-0.23
2023-03-26T19:12:07.262Z,-0.24
2023-03-26T19:14:51.252Z,-0.25
2023-03-26T19:17:19.829Z,-0.26
2023-03-26T19:19:48.060Z,-0.28
2023-03-26T19:22:18.134Z,-0.30
2023-03-26T19:24:47.326Z,-0.31
2023-03-26T19:27:17.094Z,-0.28
2023-03-26T19:29:45.738Z,-0.37
2023-03-26T19:32:22.558Z,-0.24
2023-03-26T19:34:53.501Z,-0.23
2023-03-26T19:37:23.971Z,-0.25
2023-03-26T19:39:56.010Z,-0.29
2023-03-26T19:42:43.434Z,-0.37
2023-03-26T19:45:18.794Z,-0.38
2023-03-26T19:48:00.128Z,-0.43
2023-03-26T19:50:38.740Z,-0.41
2023-03-26T19:53:17.689Z,-0.41
2023-03-26T19:55:57.492Z,-0.40
2023-03-26T19:58:28.700Z,-0.41
2023-03-26T20:00:57.151Z,-0.41
2023-03-26T20:03:29.600Z,-0.45
2023-03-26T20:05:58.249Z,-0.43
2023-03-26T20:08:27.980Z,-0.48
2023-03-26T20:10:58.664Z,-0.47
2023-03-26T20:13:30.196Z,-0.49
2023-03-26T20:16:05.792Z,-0.54
2023-03-26T20:18:35.226Z,-0.61
2023-03-26T20:21:03.757Z,-0.63
2023-03-26T20:23:32.083Z,-0.60
2023-03-26T20:26:00.315Z,-0.61
2023-03-26T20:28:35.276Z,-0.55
2023-03-26T20:31:08.300Z,-0.53
2023-03-26T20:33:36.671Z,-0.51
2023-03-26T20:36:06.910Z,-0.57
2023-03-26T20:38:39.469Z,-0.69
2023-03-26T20:41:10.780Z,-0.79
2023-03-26T20:43:40.424Z,-0.73
2023-03-26T20:46:11.607Z,-0.77
2023-03-26T20:48:40.066Z,-0.75
2023-03-26T20:51:10.550Z,-0.76
2023-03-26T20:53:41.683Z,-0.77
2023-03-26T20:56:13.721Z,-0.82
2023-03-26T20:58:44.672Z,-0.86
2023-03-26T21:01:14.195Z,-0.86
2023-03-26T21:03:44.736Z,-0.82
2023-03-26T21:06:14.509Z,-0.81
2023-03-26T21:08:44.923Z,-0.86
2023-03-26T21:11:26.587Z,-0.82
2023-03-26T21:14:02.428Z,-0.80
2023-03-26T21:16:31.596Z,-0.83
2023-03-26T21:19:00.247Z,-0.82
2023-03-26T21:21:43.900Z,-0.88
2023-03-26T21:24:23.006Z,-0.89
2023-03-26T21:26:57.569Z,-0.86
2023-03-26T21:29:28.013Z,-0.87
2023-03-26T21:31:57.294Z,-0.97
2023-03-26T21:34:27.426Z,-0.91
2023-03-26T21:36:56.303Z,-0.92
2023-03-26T21:39:25.039Z,-0.90
2023-03-26T21:42:05.232Z,-1.00
2023-03-26T21:44:36.532Z,-0.96
2023-03-26T21:47:09.200Z,-1.00
2023-03-26T21:49:38.942Z,-0.94
2023-03-26T21:52:07.819Z,-0.95
2023-03-26T21:54:37.122Z,-0.98
2023-03-26T21:57:28.088Z,-0.97
2023-03-26T22:00:14.931Z,-0.95
2023-03-26T22:03:07.032Z,-1.00
2023-03-26T22:05:40.586Z,-1.02
2023-03-26T22:08:17.971Z,-0.99
2023-03-26T22:10:47.610Z,-0.99
2023-03-26T22:13:15.875Z,-0.99
2023-03-26T22:15:46.222Z,-1.00
2023-03-26T22:18:15.245Z,-0.98
2023-03-26T22:20:46.697Z,-0.95
2023-03-26T22:23:15.499Z,-0.95
2023-03-26T22:25:43.942Z,-0.98
2023-03-26T22:28:12.356Z,-0.99
2023-03-26T22:30:40.913Z,-0.98
2023-03-26T22:33:12.125Z,-0.98
2023-03-26T22:35:43.234Z,-1.04
2023-03-26T22:38:12.631Z,-1.03
2023-03-26T22:40:40.856Z,-1.03
2023-03-26T22:43:09.547Z,-1.03
2023-03-26T22:45:38.060Z,-1.05
2023-03-26T22:48:06.415Z,-1.06
2023-03-26T22:50:36.852Z,-1.09
2023-03-26T22:53:05.109Z,-1.16
2023-03-26T22:55:33.588Z,-1.16
2023-03-26T22:58:01.950Z,-1.12
2023-03-26T23:00:30.729Z,-1.09
2023-03-26T23:03:00.576Z,-1.10
2023-03-26T23:05:29.636Z,-1.11
2023-03-26T23:07:59.350Z,-1.12
2023-03-26T23:10:30.200Z,-1.09
2023-03-26T23:12:58.362Z,-1.14
2023-03-26T23:15:26.937Z,-1.07
2023-03-26T23:17:55.472Z,-1.07
2023-03-26T23:20:23.875Z,-1.09
2023-03-26T23:22:52.589Z,-1.09
2023-03-26T23:25:22.434Z,-1.11
2023-03-26T23:27:50.912Z,-1.14
2023-03-26T23:30:19.396Z,-1.11
2023-03-26T23:32:48.123Z,-1.10
2023-03-26T23:35:16.462Z,-1.08
2023-03-26T23:37:44.762Z,-1.07
2023-03-26T23:40:14.385Z,-1.07
2023-03-26T23:42:44.145Z,-1.12
2023-03-26T23:45:13.408Z,-1.05
2023-03-26T23:47:42.858Z,-1.09
2023-03-26T23:50:13.049Z,-1.22
2023-03-26T23:52:41.392Z,-1.19
2023-03-26T23:55:10.241Z,-1.23
2023-03-26T23:57:38.477Z,-1.23
